KFATKGCN

Guest
Details From KFAT - Fresno Air Terminal
To KGCN - GRAND CANYON NATIONAL PARK
Flight Number -
Tags decoded
Created
Modified
Stats Distance 447 nm / 827 km
Max Altitude 0 ft / 0 m
Waypoints 7
Social Downloads 2
Likes 0
Share VATSIM

Download

Looking for another format? Having issues loading an existing format? Contact us
Advertisement - Login to hide

Notes

Requested: KFAT FA TTE EHF EDW BLD GCN KGCN

Route

KFAT TTE EHF EDW BLD GCN KGCN

ID Type Via Altitude Latitude Longitude Leg Dist Tot Dist Heading (true) Name
O KFAT APT - 0 ft / 0 m 36.77651˚ -119.71897˚ - 0 nm - Fresno Air Terminal
TTE VOR - 0 ft / 0 m 35.91306˚ -119.02081˚ 61 nm 61 nm 147° / 147° TULE VOR-DME
EHF VOR - 0 ft / 0 m 35.48456˚ -119.09731˚ 26 nm 87 nm 188° / 188° SHAFTER VORTAC
EDW VOR - 0 ft / 0 m 34.98236˚ -117.73261˚ 73 nm 161 nm 114° / 115° EDWARDS VORTAC
BLD VOR - 0 ft / 0 m 35.99578˚ -114.86358˚ 152 nm 314 nm 66° / 67° BOULDER CITY VORTAC
GCN VOR - 0 ft / 0 m 35.96033˚ -112.14606˚ 132 nm 446 nm 90° / 92° GRAND CANYON VOR-DME
O KGCN APT - 0 ft / 0 m 35.95237˚ -112.14692˚ 0 nm 446 nm 185° / 185° GRAND CANYON NATIONAL PARK

Altitude Profile

Advertisement - Login to hide

Weather


0- 5 10 15 20 25 30 35+ Temperature / ° C

Clouds and Precipitation
Forecast for 2017-12-11 12:00 UTC. Updated 16 minutes ago

Ground ~20,000 ft ~40,000 ft Winds

KFAT

Details ICAO KFAT (FAT)
Name Fresno Air Terminal
Region United States
Timezone America/Los_Angeles (UTC-8.0)
Stats Elevation 335 ft / 102 m (AMSL)
Location 36.776514° -119.718966°
Runways 2
Magnetic Variation 12.832° E

METAR

KFAT 111053Z 00000KT 5SM HZ SCT200 04/01 A3029 RMK AO2 SLP257 T00390011

Decode

TAF

TAF KFAT 110520Z 1106/1206 VRB03KT 4SM HZ SCT250

Decode

Departure Runways

ID Width Length Bearing (true) Bearing (mag) Surface Threshold Offset Overrun Length
11L 150 ft / 46 m 9,242 ft / 2,817 m 125.47° 112.64° Asphalt 0 ft / 0 m 1,066 ft / 325 m
11R 150 ft / 46 m 8,010 ft / 2,441 m 125.49° 112.66° Asphalt 0 ft / 0 m 1,001 ft / 305 m
29L 150 ft / 46 m 8,010 ft / 2,441 m 305.50° 292.67° Asphalt 0 ft / 0 m 1,001 ft / 305 m
29R 150 ft / 46 m 9,242 ft / 2,817 m 305.49° 292.66° Asphalt 312 ft / 95 m 850 ft / 259 m

KGCN

Details ICAO KGCN (GCN)
Name GRAND CANYON NATIONAL PARK
Region United States
Timezone America/Phoenix (UTC-7.0)
Stats Elevation 6,609 ft / 2,014 m (AMSL)
Location 35.952369° -112.146919°
Runways 1
Magnetic Variation 10.745° E

METAR

KGCN 111054Z AUTO 04003KT 10SM CLR M07/M24 A3048 RMK AO2 SLP315 T10721239

Decode

TAF

TAF KGCN 110520Z 1106/1206 06011KT P6SM SCT250= TAF KSHR 110520Z 1106/1206 34009KT P6SM BKN150 FM110900 30008KT P6SM SCT150 FM111600 34010KT P6SM FEW150 FM120000 VRB03KT P6SM SKC

Decode

Destination Runways

ID Width Length Bearing (true) Bearing (mag) Surface Threshold Offset Overrun Length
03 151 ft / 46 m 9,008 ft / 2,746 m 40.55° 29.81° Asphalt 0 ft / 0 m 0 ft / 0 m
21 151 ft / 46 m 9,008 ft / 2,746 m 220.57° 209.83° Asphalt 0 ft / 0 m 0 ft / 0 m

Approach Navaids

Runway Type Ident Frequency Range Bearing (true) Bearing (mag) Slope Elevation
03 Localiser IGCN 108.90 MHz 18 nm / 33 km 40.52° 29.77° - 6,609 ft / 2,014 m (AMSL)
03 Glidescope IGCN 108.90 MHz 10 nm / 19 km 40.56° 29.82° 3.00° 6,535 ft / 1,992 m (AMSL)
03 DME IGCN 108.90 MHz 18 nm / 33 km - - - 6,609 ft / 2,014 m (AMSL)